createdAt,value
2024-04-14T00:00:15.556Z,4.01
2024-04-14T00:02:42.539Z,3.87
2024-04-14T00:05:09.248Z,4.01
2024-04-14T00:07:38.748Z,3.97
2024-04-14T00:10:06.661Z,3.81
2024-04-14T00:12:33.745Z,3.71
2024-04-14T00:15:00.711Z,4.04
2024-04-14T00:17:27.577Z,3.88
2024-04-14T00:19:55.213Z,3.36
2024-04-14T00:22:23.099Z,3.52
2024-04-14T00:24:49.896Z,3.37
2024-04-14T00:27:17.373Z,3.64
2024-04-14T00:29:44.962Z,3.33
2024-04-14T00:32:12.629Z,3.13
2024-04-14T00:34:39.685Z,3.30
2024-04-14T00:37:09.735Z,3.33
2024-04-14T00:39:37.269Z,3.23
2024-04-14T00:42:04.377Z,3.29
2024-04-14T00:44:31.061Z,3.18
2024-04-14T00:46:58.501Z,3.16
2024-04-14T00:49:26.025Z,3.27
2024-04-14T00:51:55.521Z,3.24
2024-04-14T00:54:23.496Z,3.47
2024-04-14T00:56:54.480Z,3.75
2024-04-14T00:59:21.159Z,3.31
2024-04-14T01:01:49.336Z,3.14
2024-04-14T01:04:19.147Z,3.71
2024-04-14T01:06:46.777Z,3.24
2024-04-14T01:09:16.498Z,3.21
2024-04-14T01:11:43.334Z,3.56
2024-04-14T01:14:09.997Z,3.40
2024-04-14T01:16:36.683Z,3.39
2024-04-14T01:19:03.980Z,3.52
2024-04-14T01:21:31.579Z,3.13
2024-04-14T01:23:58.580Z,3.38
2024-04-14T01:26:28.502Z,3.79
2024-04-14T01:28:55.257Z,3.92
2024-04-14T01:31:21.960Z,4.14
2024-04-14T01:33:49.944Z,4.29
2024-04-14T01:36:18.873Z,3.85
2024-04-14T01:38:47.092Z,3.54
2024-04-14T01:41:14.775Z,4.00
2024-04-14T01:43:43.924Z,3.80
2024-04-14T01:46:13.619Z,3.97
2024-04-14T01:48:41.107Z,3.57
2024-04-14T01:51:08.167Z,3.63
2024-04-14T01:53:37.592Z,3.60
2024-04-14T01:56:07.090Z,3.55
2024-04-14T01:58:34.063Z,3.13
2024-04-14T02:01:03.324Z,2.98
2024-04-14T02:03:30.503Z,3.28
2024-04-14T02:05:58.532Z,3.41
2024-04-14T02:08:25.251Z,3.38
2024-04-14T02:10:54.136Z,3.34
2024-04-14T02:13:22.678Z,3.22
2024-04-14T02:15:49.763Z,3.11
2024-04-14T02:18:16.821Z,3.35
2024-04-14T02:20:43.983Z,3.12
2024-04-14T02:23:14.930Z,3.15
2024-04-14T02:25:41.909Z,3.21
2024-04-14T02:28:08.599Z,3.19
2024-04-14T02:30:35.925Z,3.06
2024-04-14T02:33:03.465Z,3.26
2024-04-14T02:35:30.475Z,3.83
2024-04-14T02:37:57.424Z,3.82
2024-04-14T02:40:24.459Z,3.74
2024-04-14T02:42:51.481Z,3.33
2024-04-14T02:45:19.000Z,3.48
2024-04-14T02:47:46.288Z,3.68
2024-04-14T02:50:18.203Z,3.75
2024-04-14T02:52:44.939Z,3.77
2024-04-14T02:55:11.610Z,3.64
2024-04-14T02:57:38.402Z,3.35
2024-04-14T03:00:06.174Z,3.39
2024-04-14T03:02:33.635Z,3.31
2024-04-14T03:05:00.874Z,3.46
2024-04-14T03:07:27.900Z,3.80
2024-04-14T03:09:55.669Z,3.83
2024-04-14T03:12:22.347Z,3.78
2024-04-14T03:14:49.101Z,3.81
2024-04-14T03:17:18.006Z,3.53
2024-04-14T03:19:44.728Z,3.67
2024-04-14T03:22:11.909Z,3.27
2024-04-14T03:24:38.942Z,3.36
2024-04-14T03:27:05.637Z,3.73
2024-04-14T03:29:32.294Z,3.53
2024-04-14T03:31:59.619Z,3.59
2024-04-14T03:34:26.681Z,3.23
2024-04-14T03:36:53.386Z,3.13
2024-04-14T03:39:20.933Z,3.32
2024-04-14T03:41:49.764Z,3.38
2024-04-14T03:44:17.622Z,3.18
2024-04-14T03:46:44.899Z,3.33
2024-04-14T03:49:11.666Z,3.69
2024-04-14T03:51:41.229Z,3.44
2024-04-14T03:54:09.868Z,3.39
2024-04-14T03:56:36.946Z,3.31
2024-04-14T03:59:04.149Z,3.19
2024-04-14T04:01:32.212Z,3.49
2024-04-14T04:03:59.261Z,3.10
2024-04-14T04:06:33.585Z,3.36
2024-04-14T04:09:00.937Z,3.41
2024-04-14T04:11:27.962Z,3.40
2024-04-14T04:14:15.156Z,3.27
2024-04-14T04:17:02.168Z,3.17
2024-04-14T04:19:49.155Z,2.96
2024-04-14T04:22:17.284Z,3.23
2024-04-14T04:24:43.991Z,2.92
2024-04-14T04:27:11.087Z,3.07
2024-04-14T04:29:37.749Z,3.17
2024-04-14T04:32:04.750Z,3.28
2024-04-14T04:34:31.562Z,2.65
2024-04-14T04:36:59.752Z,3.17
2024-04-14T04:39:30.304Z,3.36
2024-04-14T04:42:00.214Z,3.05
2024-04-14T04:44:26.899Z,3.05
2024-04-14T04:46:56.937Z,2.81
2024-04-14T04:49:25.115Z,3.08
2024-04-14T04:51:53.699Z,2.86
2024-04-14T04:54:24.067Z,2.78
2024-04-14T04:56:51.130Z,2.79
2024-04-14T04:59:17.801Z,2.81
2024-04-14T05:01:48.743Z,2.98
2024-04-14T05:04:16.430Z,2.80
2024-04-14T05:06:44.143Z,3.05
2024-04-14T05:09:11.497Z,3.04
2024-04-14T05:11:41.296Z,2.88
2024-04-14T05:14:15.669Z,2.99
2024-04-14T05:16:44.544Z,3.06
2024-04-14T05:19:18.992Z,2.96
2024-04-14T05:21:45.906Z,2.62
2024-04-14T05:24:12.818Z,3.05
2024-04-14T05:26:40.797Z,2.79
2024-04-14T05:29:07.521Z,3.17
2024-04-14T05:31:36.900Z,2.92
2024-04-14T05:34:05.162Z,2.95
2024-04-14T05:36:32.245Z,2.90
2024-04-14T05:38:59.949Z,3.24
2024-04-14T05:41:26.915Z,2.88
2024-04-14T05:43:54.469Z,3.29
2024-04-14T05:46:22.342Z,3.05
2024-04-14T05:48:49.386Z,2.96
2024-04-14T05:51:16.370Z,2.99
2024-04-14T05:53:43.318Z,3.00
2024-04-14T05:56:10.088Z,2.92
2024-04-14T05:58:37.628Z,3.24
2024-04-14T06:01:06.640Z,2.73
2024-04-14T06:03:36.349Z,4.17
2024-04-14T06:06:03.339Z,565.50
2024-04-14T06:08:30.084Z,651.30
2024-04-14T06:11:00.326Z,719.97
2024-04-14T06:13:52.851Z,777.72
2024-04-14T06:16:19.917Z,639.88
2024-04-14T06:18:46.773Z,58.63
2024-04-14T06:21:13.505Z,2.91
2024-04-14T06:23:41.083Z,3.13
2024-04-14T06:26:11.120Z,2.96
2024-04-14T06:28:37.862Z,3.10
2024-04-14T06:31:04.756Z,3.09
2024-04-14T06:33:31.777Z,3.29
2024-04-14T06:36:01.091Z,2.96
2024-04-14T06:38:28.145Z,3.53
2024-04-14T06:40:54.933Z,3.20
2024-04-14T06:43:24.195Z,2.95
2024-04-14T06:45:50.949Z,3.24
2024-04-14T06:48:17.828Z,782.57
2024-04-14T06:50:44.616Z,112.01
2024-04-14T06:53:11.575Z,0.00
2024-04-14T06:55:38.444Z,0.00
2024-04-14T06:58:05.565Z,0.00
2024-04-14T07:00:32.632Z,0.00
2024-04-14T07:02:59.953Z,0.00
2024-04-14T07:05:26.568Z,0.00
2024-04-14T07:07:56.379Z,0.00
2024-04-14T07:10:23.424Z,0.00
2024-04-14T07:12:50.504Z,0.00
2024-04-14T07:15:23.813Z,0.00
2024-04-14T07:17:53.624Z,0.00
2024-04-14T07:20:24.034Z,0.00
2024-04-14T07:22:50.802Z,0.00
2024-04-14T07:25:18.350Z,0.00
2024-04-14T07:27:48.235Z,0.00
2024-04-14T07:30:15.449Z,0.00
2024-04-14T07:32:42.590Z,0.00
2024-04-14T07:35:10.235Z,0.00
2024-04-14T07:37:39.640Z,0.00
2024-04-14T07:40:06.650Z,0.00
2024-04-14T07:42:33.332Z,0.00
2024-04-14T07:45:02.791Z,0.00
2024-04-14T07:47:30.296Z,0.00
2024-04-14T07:53:13.880Z,2.28
2024-04-14T07:55:40.590Z,3.23
2024-04-14T07:58:11.041Z,3.40
2024-04-14T08:00:41.660Z,2.70
2024-04-14T08:03:08.609Z,30.15
2024-04-14T08:05:37.647Z,13.61
2024-04-14T08:08:08.265Z,2.71
2024-04-14T08:10:34.968Z,2.47
2024-04-14T08:13:01.906Z,2.66
2024-04-14T08:15:28.641Z,2.64
2024-04-14T08:17:55.305Z,2.61
2024-04-14T08:20:22.386Z,2.30
2024-04-14T08:22:49.178Z,2.70
2024-04-14T08:25:15.871Z,2.52
2024-04-14T08:27:42.856Z,2.37
2024-04-14T08:30:11.401Z,2.48
2024-04-14T08:32:38.141Z,2.60
2024-04-14T08:35:05.144Z,2.71
2024-04-14T08:37:32.574Z,2.68
2024-04-14T08:39:59.352Z,2.53
2024-04-14T08:42:26.336Z,2.64
2024-04-14T08:44:53.343Z,2.78
2024-04-14T08:47:20.933Z,2.40
2024-04-14T08:49:47.620Z,2.65
2024-04-14T08:52:15.014Z,2.57
2024-04-14T08:54:44.263Z,2.86
2024-04-14T08:57:18.466Z,2.69
2024-04-14T08:59:52.689Z,2.79
2024-04-14T09:02:20.188Z,2.82
2024-04-14T09:04:46.872Z,2.70
2024-04-14T09:07:13.617Z,2.77
2024-04-14T09:09:40.295Z,2.77
2024-04-14T09:12:06.976Z,2.93
2024-04-14T09:14:33.926Z,2.94
2024-04-14T09:17:01.429Z,3.24
2024-04-14T09:19:29.196Z,2.88
2024-04-14T09:21:56.542Z,3.00
2024-04-14T09:24:23.264Z,3.10
2024-04-14T09:26:51.029Z,3.17
2024-04-14T09:29:20.240Z,3.00
2024-04-14T09:31:47.230Z,2.80
2024-04-14T09:34:15.142Z,84.51
2024-04-14T09:36:44.187Z,386.64
2024-04-14T09:39:10.839Z,3.33
2024-04-14T09:41:37.813Z,4.06
2024-04-14T09:44:07.252Z,3.01
2024-04-14T09:46:36.528Z,82.87
2024-04-14T09:49:03.528Z,71.97
2024-04-14T09:51:30.923Z,97.03
2024-04-14T09:53:58.018Z,17.36
2024-04-14T09:56:25.455Z,7.65
2024-04-14T09:58:52.437Z,2.84
2024-04-14T10:01:19.309Z,3.18
2024-04-14T10:03:46.176Z,107.79
2024-04-14T10:06:13.201Z,14.74
2024-04-14T10:08:39.912Z,3.04
2024-04-14T10:11:07.834Z,19.41
2024-04-14T10:13:35.354Z,3.23
2024-04-14T10:18:42.463Z,10.06
2024-04-14T10:21:11.236Z,386.95
2024-04-14T10:23:38.353Z,224.42
2024-04-14T10:26:05.009Z,168.08
2024-04-14T10:28:32.067Z,4.93
2024-04-14T10:30:58.901Z,3.76
2024-04-14T10:33:33.277Z,69.34
2024-04-14T10:36:00.496Z,140.19
2024-04-14T10:38:27.461Z,3.83
2024-04-14T10:40:54.461Z,61.05
2024-04-14T10:43:21.551Z,243.03
2024-04-14T10:45:48.547Z,3.51
2024-04-14T10:48:15.228Z,137.08
2024-04-14T10:50:44.040Z,119.64
2024-04-14T10:53:14.359Z,36.58
2024-04-14T10:55:41.291Z,3.65
2024-04-14T10:58:15.279Z,2.69
2024-04-14T11:00:42.363Z,0.00
2024-04-14T11:03:09.352Z,10.56
2024-04-14T11:05:36.140Z,3.18
2024-04-14T11:08:02.953Z,3.22
2024-04-14T11:10:29.983Z,8.99
2024-04-14T11:12:56.979Z,52.74
2024-04-14T11:15:23.999Z,0.00
2024-04-14T11:17:53.828Z,0.00
2024-04-14T11:20:20.556Z,0.00
2024-04-14T11:22:47.609Z,0.00
2024-04-14T11:25:14.233Z,0.00
2024-04-14T11:27:41.027Z,20.47
2024-04-14T11:30:07.735Z,18.12
2024-04-14T11:32:37.483Z,11.38
2024-04-14T11:35:04.307Z,3.22
2024-04-14T11:37:38.404Z,0.00
2024-04-14T11:40:06.001Z,0.00
2024-04-14T11:42:33.961Z,0.00
2024-04-14T11:45:00.942Z,0.00
2024-04-14T11:47:27.639Z,0.00
2024-04-14T11:49:54.431Z,0.00
2024-04-14T11:52:21.278Z,0.14
2024-04-14T11:54:47.968Z,0.00
2024-04-14T11:57:14.681Z,0.00
2024-04-14T11:59:41.397Z,0.00
2024-04-14T12:02:08.434Z,0.00
2024-04-14T12:04:35.180Z,0.00
2024-04-14T12:07:01.919Z,0.00
2024-04-14T12:09:28.693Z,0.00
2024-04-14T12:11:56.342Z,0.00
2024-04-14T12:14:23.040Z,0.00
2024-04-14T12:16:52.331Z,0.00
2024-04-14T12:19:19.285Z,0.00
2024-04-14T12:21:47.154Z,0.00
2024-04-14T12:24:13.915Z,0.00
2024-04-14T12:26:40.548Z,0.00
2024-04-14T12:29:07.263Z,0.00
2024-04-14T12:31:34.446Z,0.00
2024-04-14T12:34:05.058Z,0.00
2024-04-14T12:36:31.753Z,0.00
2024-04-14T12:38:58.471Z,0.00
2024-04-14T12:41:25.142Z,0.00
2024-04-14T12:43:53.688Z,0.00
2024-04-14T12:46:23.522Z,0.00
2024-04-14T12:48:50.287Z,0.00
2024-04-14T12:51:16.940Z,0.00
2024-04-14T12:53:43.622Z,0.00
2024-04-14T12:56:10.300Z,89.23
2024-04-14T12:58:37.038Z,16.86
2024-04-14T13:13:50.817Z,0.00
2024-04-14T13:34:43.669Z,0.00
2024-04-14T13:37:10.483Z,0.00
2024-04-14T13:39:37.321Z,0.00
2024-04-14T13:42:05.500Z,0.00
2024-04-14T13:44:35.065Z,0.00
2024-04-14T13:47:02.188Z,0.00
2024-04-14T13:49:32.278Z,0.00
2024-04-14T13:58:30.855Z,0.00
2024-04-14T14:00:57.746Z,0.00
2024-04-14T14:03:24.584Z,0.00
2024-04-14T14:05:51.420Z,0.00
2024-04-14T14:08:18.409Z,0.00
2024-04-14T14:10:45.434Z,0.00
2024-04-14T14:13:12.638Z,0.00
2024-04-14T14:15:39.815Z,0.00
2024-04-14T14:18:07.123Z,0.00
2024-04-14T14:20:36.238Z,0.00
2024-04-14T14:23:06.131Z,0.00
2024-04-14T14:25:32.796Z,0.00
2024-04-14T14:27:59.854Z,0.00
2024-04-14T14:30:26.552Z,0.00
2024-04-14T14:32:54.415Z,0.00
2024-04-14T14:35:22.394Z,0.00
2024-04-14T14:37:49.246Z,0.00
2024-04-14T14:40:16.242Z,0.00
2024-04-14T14:42:45.997Z,0.00
2024-04-14T14:45:13.765Z,0.00
2024-04-14T14:47:41.421Z,0.00
2024-04-14T14:50:08.194Z,0.00
2024-04-14T14:52:35.081Z,0.00
2024-04-14T14:55:03.280Z,0.00
2024-04-14T14:57:30.130Z,0.00
2024-04-14T14:59:59.118Z,0.00
2024-04-14T15:02:27.128Z,0.00
2024-04-14T15:04:54.425Z,0.00
2024-04-14T15:07:21.239Z,0.00
2024-04-14T15:09:49.318Z,0.15
2024-04-14T15:15:01.683Z,0.00
2024-04-14T15:23:51.800Z,0.00
2024-04-14T15:26:18.466Z,0.00
2024-04-14T15:28:46.120Z,0.00
2024-04-14T15:31:23.992Z,0.00
2024-04-14T15:33:50.691Z,0.00
2024-04-14T15:36:19.662Z,0.00
2024-04-14T15:38:46.322Z,0.00
2024-04-14T15:41:13.126Z,457.57
2024-04-14T15:43:39.747Z,194.78
2024-04-14T15:46:06.814Z,12.23
2024-04-14T15:48:33.458Z,8.71
2024-04-14T15:51:13.548Z,15.88
2024-04-14T15:53:46.292Z,4.12
2024-04-14T15:56:13.296Z,3.95
2024-04-14T15:58:41.004Z,4.20
2024-04-14T16:01:07.743Z,4.96
2024-04-14T16:03:34.507Z,24.34
2024-04-14T16:06:01.497Z,0.00
2024-04-14T16:08:28.225Z,17.44
2024-04-14T16:10:54.878Z,60.88
2024-04-14T16:13:21.610Z,117.48
2024-04-14T16:15:48.410Z,48.80
2024-04-14T16:18:18.753Z,0.03
2024-04-14T16:20:45.874Z,0.00
2024-04-14T16:23:12.595Z,0.00
2024-04-14T16:25:39.283Z,0.00
2024-04-14T16:28:06.335Z,0.00
2024-04-14T16:30:33.339Z,0.26
2024-04-14T16:33:00.888Z,0.00
2024-04-14T16:35:27.595Z,0.00
2024-04-14T16:37:54.230Z,0.00
2024-04-14T16:40:20.863Z,3.54
2024-04-14T16:42:50.049Z,48.26
2024-04-14T16:45:16.720Z,70.81
2024-04-14T16:47:43.713Z,118.83
2024-04-14T16:50:10.574Z,148.71
2024-04-14T16:52:37.444Z,127.46
2024-04-14T16:55:04.583Z,329.76
2024-04-14T16:57:34.352Z,123.84
2024-04-14T17:00:00.987Z,5.32
2024-04-14T17:02:27.639Z,5.37
2024-04-14T17:04:54.266Z,4.14
2024-04-14T17:07:21.012Z,3.82
2024-04-14T17:09:47.657Z,3.72
2024-04-14T17:12:15.235Z,3.66
2024-04-14T17:14:44.606Z,4.05
2024-04-14T17:17:12.968Z,3.89
2024-04-14T17:19:39.632Z,4.35
2024-04-14T17:22:06.400Z,3.67
2024-04-14T17:24:33.073Z,3.91
2024-04-14T17:26:59.678Z,3.73
2024-04-14T17:29:26.292Z,4.12
2024-04-14T17:31:52.927Z,3.64
2024-04-14T17:34:19.623Z,87.40
2024-04-14T17:36:46.319Z,3.79
2024-04-14T17:39:13.030Z,3.84
2024-04-14T17:41:39.670Z,4.38
2024-04-14T17:44:06.402Z,3.87
2024-04-14T17:46:33.035Z,3.64
2024-04-14T17:48:59.685Z,3.79
2024-04-14T17:51:26.395Z,3.67
2024-04-14T17:53:53.312Z,3.65
2024-04-14T17:56:27.401Z,3.94
2024-04-14T17:58:54.305Z,4.19
2024-04-14T18:01:22.021Z,3.67
2024-04-14T18:03:48.794Z,3.67
2024-04-14T18:06:15.456Z,3.95
2024-04-14T18:08:42.098Z,3.28
2024-04-14T18:11:08.736Z,3.73
2024-04-14T18:13:35.398Z,3.33
2024-04-14T18:16:02.039Z,3.66
2024-04-14T18:18:28.732Z,3.68
2024-04-14T18:20:56.383Z,3.63
2024-04-14T18:23:23.012Z,3.68
2024-04-14T18:25:50.710Z,3.68
2024-04-14T18:28:17.378Z,3.74
2024-04-14T18:30:44.069Z,3.90
2024-04-14T18:33:10.779Z,3.64
2024-04-14T18:35:39.723Z,3.65
2024-04-14T18:38:10.881Z,3.72
2024-04-14T18:40:37.557Z,3.39
2024-04-14T18:43:04.252Z,4.05
2024-04-14T18:45:31.888Z,3.67
2024-04-14T18:47:58.659Z,4.42
2024-04-14T18:50:25.395Z,12.42
2024-04-14T18:52:52.639Z,4.94
2024-04-14T18:55:19.315Z,4.78
2024-04-14T18:57:48.432Z,5.40
2024-04-14T19:00:16.400Z,4.47
2024-04-14T19:02:42.992Z,4.35
2024-04-14T19:05:09.657Z,4.89
2024-04-14T19:07:36.335Z,4.30
2024-04-14T19:10:02.968Z,4.40
2024-04-14T19:12:29.649Z,4.19
2024-04-14T19:14:56.251Z,3.90
2024-04-14T19:17:22.906Z,4.06
2024-04-14T19:19:49.531Z,4.12
2024-04-14T19:22:16.339Z,4.21
2024-04-14T19:24:42.961Z,4.03
2024-04-14T19:27:09.596Z,4.34
2024-04-14T19:29:45.461Z,3.89
2024-04-14T19:32:12.238Z,4.64
2024-04-14T19:34:38.885Z,4.40
2024-04-14T19:37:05.490Z,4.46
2024-04-14T19:55:56.087Z,4.89
2024-04-14T19:58:22.782Z,4.73
2024-04-14T20:00:49.947Z,4.84
2024-04-14T20:03:17.049Z,5.17
2024-04-14T20:05:43.858Z,5.11
2024-04-14T20:08:11.105Z,5.18
2024-04-14T20:10:38.035Z,5.34
2024-04-14T20:13:07.051Z,6.02
2024-04-14T20:15:34.470Z,5.02
2024-04-14T20:18:01.351Z,4.53
2024-04-14T20:20:28.455Z,4.69
2024-04-14T20:23:02.808Z,4.00
2024-04-14T20:25:29.660Z,4.46
2024-04-14T20:27:56.348Z,4.36
2024-04-14T20:30:22.988Z,4.63
2024-04-14T20:32:49.773Z,5.04
2024-04-14T20:35:16.439Z,5.20
2024-04-14T20:37:43.235Z,4.71
2024-04-14T20:40:10.052Z,4.66
2024-04-14T20:42:36.817Z,4.62
2024-04-14T20:45:03.499Z,4.58
2024-04-14T20:47:30.287Z,4.66
2024-04-14T20:49:56.979Z,4.54
2024-04-14T20:52:25.160Z,4.57
2024-04-14T20:54:51.896Z,4.58
2024-04-14T20:57:18.904Z,4.25
2024-04-14T20:59:45.804Z,3.76
2024-04-14T21:02:24.854Z,4.06
2024-04-14T21:05:10.494Z,3.96
2024-04-14T21:07:38.083Z,4.12
2024-04-14T21:10:04.866Z,3.91
2024-04-14T21:12:31.963Z,3.62
2024-04-14T21:14:59.462Z,3.64
2024-04-14T21:17:28.603Z,3.80
2024-04-14T21:19:55.690Z,3.22
2024-04-14T21:22:22.707Z,3.80
2024-04-14T21:24:49.454Z,4.28
2024-04-14T21:27:16.107Z,4.38
2024-04-14T21:29:43.094Z,4.24
2024-04-14T21:32:09.731Z,4.62
2024-04-14T21:34:36.627Z,4.19
2024-04-14T21:37:03.405Z,4.26
2024-04-14T21:39:30.091Z,4.09
2024-04-14T21:41:59.215Z,4.23
2024-04-14T21:44:26.207Z,4.36
2024-04-14T21:46:53.145Z,4.31
2024-04-14T21:49:20.950Z,4.57
2024-04-14T21:51:47.837Z,3.61
2024-04-14T21:54:14.486Z,3.84
2024-04-14T21:56:41.154Z,3.77
2024-04-14T21:59:07.952Z,3.82
2024-04-14T22:01:43.956Z,4.01
2024-04-14T22:04:16.447Z,3.71
2024-04-14T22:06:48.448Z,3.60
2024-04-14T22:09:15.245Z,3.55
2024-04-14T22:11:42.046Z,3.44
2024-04-14T22:14:08.795Z,3.39
2024-04-14T22:16:35.548Z,3.36
2024-04-14T22:19:02.248Z,3.21
2024-04-14T22:21:32.198Z,3.16
2024-04-14T22:24:01.712Z,3.15
2024-04-14T22:26:28.414Z,3.21
2024-04-14T22:28:55.371Z,3.33
2024-04-14T22:31:22.048Z,3.24
2024-04-14T22:33:48.976Z,3.21
2024-04-14T22:36:17.931Z,3.21
2024-04-14T22:39:04.913Z,2.88
2024-04-14T22:41:31.512Z,2.96
2024-04-14T22:43:58.398Z,3.34
2024-04-14T22:46:25.062Z,3.05
2024-04-14T22:48:52.061Z,2.94
2024-04-14T22:51:18.691Z,3.11
2024-04-14T22:53:45.723Z,3.16
2024-04-14T22:56:12.345Z,3.20
2024-04-14T22:58:40.452Z,3.05
2024-04-14T23:01:07.283Z,3.28
2024-04-14T23:03:34.350Z,3.28
2024-04-14T23:06:01.640Z,3.16
2024-04-14T23:08:28.312Z,3.20
2024-04-14T23:10:56.030Z,3.27
2024-04-14T23:13:23.913Z,3.05
2024-04-14T23:15:50.752Z,3.06
2024-04-14T23:18:18.216Z,2.99
2024-04-14T23:20:44.908Z,2.92
2024-04-14T23:23:12.239Z,2.87
2024-04-14T23:25:46.126Z,2.84
2024-04-14T23:28:12.924Z,3.27
2024-04-14T23:30:39.800Z,3.26
2024-04-14T23:33:07.320Z,3.20
2024-04-14T23:35:34.455Z,3.02
2024-04-14T23:38:01.485Z,3.11
2024-04-14T23:40:28.205Z,3.20
2024-04-14T23:42:54.898Z,3.08
2024-04-14T23:45:21.590Z,2.87
2024-04-14T23:47:48.640Z,3.01
2024-04-14T23:50:15.574Z,3.06
2024-04-14T23:52:42.265Z,2.88
2024-04-14T23:55:09.441Z,3.14
2024-04-14T23:57:36.235Z,2.90
